Terminal Aerodrome Forecast
Issued by NWS

Home | Current Version | Previous Version | Text Only | Print | Product List | Glossary On
Versions: 1 2 3 4 5 6 7 8 9 10 11 12 13 14 15
000
FTUS46 KLOX 251514 AAA
TAFOXR
TAF AMD
KOXR 251514Z 2515/2612 VRB03KT 6SM BR SCT009
     FM251700 23006KT P6SM SCT010
     FM252000 25012KT P6SM SKC
     FM260500 28007KT P6SM BKN007
     FM260800 VRB03KT P6SM OVC010
     FM261100 VRB03KT 6SM BR OVC010=

USA.gov is the U.S. government's official web portal to all federal, state and local government web resources and services.